createdAt,value
2022-12-11T00:00:32.749Z,0
2022-12-11T00:01:35.606Z,0
2022-12-11T00:02:38.148Z,0
2022-12-11T00:03:40.941Z,0
2022-12-11T00:04:44.735Z,0
2022-12-11T00:05:48.059Z,0
2022-12-11T00:06:51.582Z,0
2022-12-11T00:07:54.837Z,0
2022-12-11T00:08:57.520Z,0
2022-12-11T00:10:00.301Z,0
2022-12-11T00:11:02.816Z,0
2022-12-11T00:12:05.947Z,0
2022-12-11T00:13:08.717Z,0
2022-12-11T00:14:11.207Z,0
2022-12-11T00:15:14.036Z,0
2022-12-11T00:16:16.928Z,0
2022-12-11T00:17:29.010Z,0
2022-12-11T00:18:32.726Z,0
2022-12-11T00:19:35.606Z,0
2022-12-11T00:20:38.604Z,0
2022-12-11T00:21:41.381Z,0
2022-12-11T00:22:45.447Z,0
2022-12-11T00:23:48.598Z,0
2022-12-11T00:24:51.828Z,0
2022-12-11T00:25:55.282Z,0
2022-12-11T00:26:58.605Z,0
2022-12-11T00:28:01.975Z,0
2022-12-11T00:29:04.574Z,0
2022-12-11T00:30:07.275Z,0
2022-12-11T00:31:09.981Z,0
2022-12-11T00:32:12.771Z,0
2022-12-11T00:33:16.228Z,0
2022-12-11T00:34:18.997Z,0
2022-12-11T00:35:21.421Z,0
2022-12-11T00:36:24.312Z,0
2022-12-11T00:37:27.196Z,0
2022-12-11T00:38:31.440Z,0
2022-12-11T00:39:34.168Z,0
2022-12-11T00:40:37.175Z,0
2022-12-11T00:41:39.940Z,0
2022-12-11T00:42:42.976Z,0
2022-12-11T00:43:45.190Z,0
2022-12-11T00:44:47.953Z,0
2022-12-11T00:45:51.691Z,0
2022-12-11T00:46:54.782Z,0
2022-12-11T00:47:58.405Z,0
2022-12-11T00:49:00.635Z,0
2022-12-11T00:50:03.335Z,0
2022-12-11T00:51:06.451Z,0
2022-12-11T00:52:09.244Z,0
2022-12-11T00:53:12.215Z,0
2022-12-11T00:54:16.087Z,0
2022-12-11T00:55:19.541Z,0
2022-12-11T00:56:22.529Z,0
2022-12-11T00:57:24.824Z,0
2022-12-11T00:58:27.314Z,0
2022-12-11T00:59:30.044Z,0
2022-12-11T01:00:33.099Z,0
2022-12-11T01:01:36.405Z,0
2022-12-11T01:02:39.426Z,0
2022-12-11T01:03:43.015Z,0
2022-12-11T01:04:45.998Z,0
2022-12-11T01:05:48.139Z,0
2022-12-11T01:06:50.105Z,0
2022-12-11T01:07:53.256Z,0
2022-12-11T01:08:56.617Z,0
2022-12-11T01:10:00.164Z,0
2022-12-11T01:11:02.995Z,0
2022-12-11T01:12:05.972Z,0
2022-12-11T01:13:08.552Z,0
2022-12-11T01:14:11.882Z,0
2022-12-11T01:15:14.935Z,0
2022-12-11T01:16:17.545Z,0
2022-12-11T01:17:20.931Z,0
2022-12-11T01:18:23.773Z,0
2022-12-11T01:19:27.133Z,0
2022-12-11T01:20:29.071Z,0
2022-12-11T01:21:31.646Z,0
2022-12-11T01:22:34.764Z,0
2022-12-11T01:23:37.625Z,0
2022-12-11T01:24:40.781Z,0
2022-12-11T01:25:44.344Z,0
2022-12-11T01:26:47.788Z,0
2022-12-11T01:27:50.085Z,0
2022-12-11T01:28:52.853Z,0
2022-12-11T01:29:55.626Z,0
2022-12-11T01:30:58.468Z,0
2022-12-11T01:32:01.852Z,0
2022-12-11T01:33:04.807Z,0
2022-12-11T01:34:07.782Z,0
2022-12-11T01:35:11.154Z,0
2022-12-11T01:36:15.092Z,0
2022-12-11T01:37:17.318Z,0
2022-12-11T01:38:20.303Z,0
2022-12-11T01:39:23.312Z,0
2022-12-11T01:40:26.082Z,0
2022-12-11T01:41:29.718Z,0
2022-12-11T01:42:32.972Z,0
2022-12-11T01:43:37.051Z,0
2022-12-11T01:44:40.024Z,0
2022-12-11T01:45:42.896Z,0
2022-12-11T01:46:46.428Z,0
2022-12-11T01:47:49.005Z,0
2022-12-11T01:48:51.762Z,0
2022-12-11T01:49:55.161Z,0
2022-12-11T01:50:58.590Z,0
2022-12-11T01:52:01.749Z,0
2022-12-11T01:53:04.249Z,0
2022-12-11T01:54:07.225Z,0
2022-12-11T01:55:11.240Z,0
2022-12-11T01:56:15.065Z,0
2022-12-11T01:57:17.488Z,0
2022-12-11T01:58:20.290Z,0
2022-12-11T01:59:24.084Z,0
2022-12-11T02:00:26.860Z,0
2022-12-11T02:01:30.066Z,0
2022-12-11T02:02:34.024Z,0
2022-12-11T02:03:37.123Z,0
2022-12-11T02:04:40.758Z,0
2022-12-11T02:05:43.802Z,0
2022-12-11T02:06:46.673Z,0
2022-12-11T02:07:50.105Z,0
2022-12-11T02:08:53.586Z,0
2022-12-11T02:09:56.634Z,0
2022-12-11T02:10:59.141Z,0
2022-12-11T02:12:01.560Z,0
2022-12-11T02:13:03.512Z,0
2022-12-11T02:14:06.464Z,0
2022-12-11T02:15:10.645Z,0
2022-12-11T02:16:15.281Z,0
2022-12-11T02:17:18.623Z,0
2022-12-11T02:18:21.403Z,0
2022-12-11T02:19:24.182Z,0
2022-12-11T02:20:26.601Z,0
2022-12-11T02:21:29.567Z,0
2022-12-11T02:22:31.982Z,0
2022-12-11T02:23:35.226Z,0
2022-12-11T02:24:38.655Z,0
2022-12-11T02:25:41.072Z,0
2022-12-11T02:26:44.215Z,0
2022-12-11T02:27:46.919Z,0
2022-12-11T02:28:49.798Z,0
2022-12-11T02:29:53.157Z,0
2022-12-11T02:30:57.292Z,0
2022-12-11T02:32:00.509Z,0
2022-12-11T02:33:03.857Z,0
2022-12-11T02:34:06.631Z,0
2022-12-11T02:35:09.992Z,0
2022-12-11T02:36:14.862Z,0
2022-12-11T02:37:17.376Z,0
2022-12-11T02:38:20.084Z,0
2022-12-11T02:39:22.857Z,0
2022-12-11T02:40:25.631Z,0
2022-12-11T02:41:28.552Z,0
2022-12-11T02:42:32.010Z,0
2022-12-11T02:43:35.283Z,0
2022-12-11T02:44:38.408Z,0
2022-12-11T02:45:41.221Z,0
2022-12-11T02:46:45.764Z,0
2022-12-11T02:47:48.459Z,0
2022-12-11T02:48:51.509Z,0
2022-12-11T02:49:54.482Z,0
2022-12-11T02:50:57.744Z,0
2022-12-11T02:51:59.982Z,0
2022-12-11T02:53:02.206Z,0
2022-12-11T02:54:05.347Z,0
2022-12-11T02:55:08.122Z,0
2022-12-11T02:56:12.867Z,0
2022-12-11T02:57:15.846Z,0
2022-12-11T02:58:18.655Z,0
2022-12-11T02:59:21.536Z,0
2022-12-11T03:00:24.308Z,0
2022-12-11T03:01:27.841Z,0
2022-12-11T03:02:38.386Z,0
2022-12-11T03:03:41.926Z,0
2022-12-11T03:04:44.898Z,0
2022-12-11T03:05:48.223Z,0
2022-12-11T03:06:50.472Z,0
2022-12-11T03:07:53.034Z,0
2022-12-11T03:08:56.374Z,0
2022-12-11T03:09:59.520Z,0
2022-12-11T03:11:02.015Z,0
2022-12-11T03:12:05.445Z,0
2022-12-11T03:13:08.216Z,0
2022-12-11T03:14:11.927Z,0
2022-12-11T03:15:15.247Z,0
2022-12-11T03:16:17.554Z,0
2022-12-11T03:17:20.868Z,0
2022-12-11T03:18:24.305Z,0
2022-12-11T03:19:27.706Z,0
2022-12-11T03:20:31.040Z,0
2022-12-11T03:21:34.084Z,0
2022-12-11T03:22:37.138Z,0
2022-12-11T03:23:41.134Z,0
2022-12-11T03:24:44.188Z,0
2022-12-11T03:25:47.233Z,0
2022-12-11T03:26:54.545Z,0
2022-12-11T03:28:12.353Z,0
2022-12-11T03:29:14.880Z,0
2022-12-11T03:30:17.384Z,0
2022-12-11T03:31:20.256Z,0
2022-12-11T03:32:23.482Z,0
2022-12-11T03:33:27.537Z,0
2022-12-11T03:34:31.272Z,0
2022-12-11T03:35:33.687Z,0
2022-12-11T03:36:36.458Z,0
2022-12-11T03:37:39.240Z,0
2022-12-11T03:38:42.794Z,0
2022-12-11T03:39:45.234Z,0
2022-12-11T03:40:48.156Z,0
2022-12-11T03:41:51.014Z,0
2022-12-11T03:42:53.741Z,0
2022-12-11T03:43:56.221Z,0
2022-12-11T03:44:59.683Z,0
2022-12-11T03:46:02.907Z,0
2022-12-11T03:47:06.419Z,0
2022-12-11T03:48:09.277Z,0
2022-12-11T03:49:12.664Z,0
2022-12-11T03:50:16.032Z,0
2022-12-11T03:51:19.076Z,0
2022-12-11T03:52:22.012Z,0
2022-12-11T03:53:25.410Z,0
2022-12-11T03:54:28.459Z,0
2022-12-11T03:55:31.804Z,0
2022-12-11T03:56:35.030Z,0
2022-12-11T03:57:38.008Z,0
2022-12-11T03:58:41.138Z,0
2022-12-11T03:59:44.569Z,0
2022-12-11T04:00:47.424Z,0
2022-12-11T04:01:50.419Z,0
2022-12-11T04:02:53.549Z,0
2022-12-11T04:03:55.829Z,0
2022-12-11T04:04:59.904Z,0
2022-12-11T04:06:03.047Z,0
2022-12-11T04:07:05.647Z,0
2022-12-11T04:08:08.537Z,0
2022-12-11T04:09:10.890Z,0
2022-12-11T04:10:14.303Z,0
2022-12-11T04:11:17.167Z,0
2022-12-11T04:12:19.670Z,0
2022-12-11T04:13:22.242Z,0
2022-12-11T04:14:25.024Z,0
2022-12-11T04:15:27.629Z,0
2022-12-11T04:16:30.964Z,0
2022-12-11T04:17:33.807Z,0
2022-12-11T04:18:37.308Z,0
2022-12-11T04:19:40.463Z,0
2022-12-11T04:20:44.589Z,0
2022-12-11T04:21:47.192Z,0
2022-12-11T04:22:49.140Z,0
2022-12-11T04:23:51.648Z,0
2022-12-11T04:24:54.139Z,0
2022-12-11T04:25:56.976Z,0
2022-12-11T04:26:59.392Z,0
2022-12-11T04:28:01.884Z,0
2022-12-11T04:29:04.473Z,0
2022-12-11T04:30:07.164Z,0
2022-12-11T04:31:10.261Z,0
2022-12-11T04:32:13.763Z,0
2022-12-11T04:33:15.972Z,0
2022-12-11T04:34:19.032Z,0
2022-12-11T04:35:21.631Z,0
2022-12-11T04:36:25.321Z,0
2022-12-11T04:37:28.458Z,0
2022-12-11T04:38:31.788Z,0
2022-12-11T04:39:34.916Z,0
2022-12-11T04:40:37.611Z,0
2022-12-11T04:41:40.112Z,0
2022-12-11T04:42:42.961Z,0
2022-12-11T04:43:45.953Z,0
2022-12-11T04:44:48.472Z,0
2022-12-11T04:45:51.248Z,0
2022-12-11T04:46:53.685Z,0
2022-12-11T04:47:57.085Z,0
2022-12-11T04:49:00.418Z,0
2022-12-11T04:50:03.813Z,0
2022-12-11T04:51:06.893Z,0
2022-12-11T04:52:10.656Z,0
2022-12-11T04:53:13.724Z,0
2022-12-11T04:54:16.489Z,0
2022-12-11T04:55:19.464Z,0
2022-12-11T04:56:22.519Z,0
2022-12-11T04:57:25.665Z,0
2022-12-11T04:58:28.733Z,0
2022-12-11T04:59:31.797Z,0
2022-12-11T05:00:34.574Z,0
2022-12-11T05:01:37.400Z,0
2022-12-11T05:02:40.749Z,0
2022-12-11T05:03:43.487Z,0
2022-12-11T05:04:46.524Z,0
2022-12-11T05:05:49.613Z,0
2022-12-11T05:06:52.134Z,0
2022-12-11T05:07:55.636Z,0
2022-12-11T05:08:59.618Z,0
2022-12-11T05:10:02.942Z,0
2022-12-11T05:11:05.694Z,0
2022-12-11T05:12:07.830Z,0
2022-12-11T05:13:10.589Z,0
2022-12-11T05:14:13.436Z,0
2022-12-11T05:15:16.834Z,0
2022-12-11T05:16:19.670Z,0
2022-12-11T05:17:22.757Z,0
2022-12-11T05:18:25.742Z,0
2022-12-11T05:19:29.157Z,0
2022-12-11T05:20:32.135Z,0
2022-12-11T05:21:35.377Z,0
2022-12-11T05:22:38.709Z,0
2022-12-11T05:23:42.541Z,0
2022-12-11T05:24:45.982Z,0
2022-12-11T05:25:48.631Z,0
2022-12-11T05:26:51.038Z,0
2022-12-11T05:27:53.995Z,0
2022-12-11T05:28:57.406Z,0
2022-12-11T05:30:00.459Z,0
2022-12-11T05:31:02.377Z,0
2022-12-11T05:32:05.573Z,0
2022-12-11T05:33:08.086Z,0
2022-12-11T05:34:10.782Z,0
2022-12-11T05:35:14.063Z,0
2022-12-11T05:36:17.120Z,0
2022-12-11T05:37:19.540Z,0
2022-12-11T05:38:22.434Z,0
2022-12-11T05:39:26.209Z,0
2022-12-11T05:40:29.015Z,0
2022-12-11T05:41:32.152Z,0
2022-12-11T05:42:34.927Z,0
2022-12-11T05:43:37.955Z,0
2022-12-11T05:44:40.924Z,0
2022-12-11T05:45:43.763Z,0
2022-12-11T05:46:46.867Z,0
2022-12-11T05:47:50.896Z,0
2022-12-11T05:48:54.018Z,0
2022-12-11T05:49:57.074Z,0
2022-12-11T05:50:59.234Z,0
2022-12-11T05:52:02.377Z,0
2022-12-11T05:53:05.222Z,0
2022-12-11T05:54:08.366Z,0
2022-12-11T05:55:12.352Z,0
2022-12-11T05:56:16.832Z,0
2022-12-11T05:57:19.614Z,0
2022-12-11T05:58:22.815Z,0
2022-12-11T05:59:25.584Z,0
2022-12-11T06:00:31.583Z,0
2022-12-11T06:01:38.984Z,0
2022-12-11T06:02:42.918Z,0
2022-12-11T06:03:46.374Z,0
2022-12-11T06:04:49.149Z,0
2022-12-11T06:05:52.335Z,0
2022-12-11T06:06:55.424Z,0
2022-12-11T06:07:58.900Z,0
2022-12-11T06:09:01.925Z,0
2022-12-11T06:10:04.649Z,0
2022-12-11T06:11:08.057Z,0
2022-12-11T06:12:10.915Z,0
2022-12-11T06:13:14.325Z,0
2022-12-11T06:14:17.659Z,0
2022-12-11T06:15:20.083Z,0
2022-12-11T06:16:22.280Z,0
2022-12-11T06:17:25.349Z,0
2022-12-11T06:18:28.033Z,0
2022-12-11T06:19:35.050Z,0
2022-12-11T06:20:40.197Z,0
2022-12-11T06:21:42.967Z,0
2022-12-11T06:22:46.094Z,0
2022-12-11T06:23:48.593Z,0
2022-12-11T06:24:51.025Z,0
2022-12-11T06:25:53.568Z,0
2022-12-11T06:26:57.366Z,0
2022-12-11T06:28:01.101Z,0
2022-12-11T06:29:06.296Z,0
2022-12-11T06:30:16.018Z,0
2022-12-11T06:31:19.301Z,0
2022-12-11T06:32:23.162Z,0
2022-12-11T06:33:25.936Z,0
2022-12-11T06:34:28.986Z,0
2022-12-11T06:35:31.670Z,0
2022-12-11T06:36:44.143Z,0
2022-12-11T06:37:47.876Z,0
2022-12-11T06:38:50.723Z,0
2022-12-11T06:39:54.134Z,4
2022-12-11T06:40:57.205Z,4
2022-12-11T06:42:00.676Z,4
2022-12-11T06:43:04.196Z,0
2022-12-11T06:44:07.254Z,4
2022-12-11T06:45:11.208Z,4
2022-12-11T06:46:15.211Z,4
2022-12-11T06:47:19.003Z,4
2022-12-11T06:48:21.770Z,8
2022-12-11T06:49:24.480Z,8
2022-12-11T06:50:26.701Z,12
2022-12-11T06:51:29.706Z,12
2022-12-11T06:52:32.953Z,16
2022-12-11T06:53:36.100Z,20
2022-12-11T06:54:39.483Z,28
2022-12-11T06:55:41.977Z,28
2022-12-11T06:56:44.160Z,32
2022-12-11T06:57:47.690Z,36
2022-12-11T06:58:50.765Z,40
2022-12-11T06:59:54.589Z,44
2022-12-11T07:00:56.906Z,48
2022-12-11T07:02:00.151Z,52
2022-12-11T07:03:03.309Z,60
2022-12-11T07:04:06.652Z,68
2022-12-11T07:05:09.288Z,72
2022-12-11T07:06:14.399Z,80
2022-12-11T07:07:17.727Z,88
2022-12-11T07:08:20.890Z,96
2022-12-11T07:09:24.105Z,104
2022-12-11T07:10:26.513Z,112
2022-12-11T07:11:29.315Z,128
2022-12-11T07:12:32.695Z,140
2022-12-11T07:13:36.452Z,152
2022-12-11T07:14:39.877Z,164
2022-12-11T07:15:42.582Z,172
2022-12-11T07:16:45.943Z,180
2022-12-11T07:17:48.413Z,188
2022-12-11T07:18:50.857Z,204
2022-12-11T07:19:53.436Z,216
2022-12-11T07:20:55.650Z,240
2022-12-11T07:21:58.979Z,252
2022-12-11T07:23:01.777Z,264
2022-12-11T07:24:04.549Z,284
2022-12-11T07:25:08.650Z,312
2022-12-11T07:26:13.867Z,320
2022-12-11T07:27:16.646Z,324
2022-12-11T07:28:19.818Z,332
2022-12-11T07:29:23.517Z,336
2022-12-11T07:30:26.979Z,340
2022-12-11T07:31:29.900Z,352
2022-12-11T07:32:32.778Z,360
2022-12-11T07:33:35.949Z,364
2022-12-11T07:34:38.740Z,388
2022-12-11T07:35:41.794Z,424
2022-12-11T07:36:44.495Z,464
2022-12-11T07:37:47.291Z,508
2022-12-11T07:38:50.649Z,532
2022-12-11T07:39:52.861Z,536
2022-12-11T07:40:55.450Z,532
2022-12-11T07:41:57.944Z,528
2022-12-11T07:43:00.996Z,520
2022-12-11T07:44:04.361Z,516
2022-12-11T07:45:08.847Z,508
2022-12-11T07:46:14.718Z,500
2022-12-11T07:47:17.847Z,524
2022-12-11T07:48:21.532Z,592
2022-12-11T07:49:23.948Z,684
2022-12-11T07:50:26.478Z,792
2022-12-11T07:51:29.602Z,876
2022-12-11T07:52:31.613Z,920
2022-12-11T07:53:34.474Z,936
2022-12-11T07:54:37.677Z,924
2022-12-11T07:55:40.760Z,920
2022-12-11T07:56:44.027Z,928
2022-12-11T07:57:56.154Z,924
2022-12-11T07:58:59.753Z,948
2022-12-11T08:00:03.181Z,968
2022-12-11T08:01:06.628Z,984
2022-12-11T08:02:10.405Z,1008
2022-12-11T08:03:13.764Z,1036
2022-12-11T08:04:17.075Z,1048
2022-12-11T08:05:19.494Z,1040
2022-12-11T08:06:21.989Z,1052
2022-12-11T08:07:24.786Z,1084
2022-12-11T08:08:28.215Z,1116
2022-12-11T08:09:31.411Z,1152
2022-12-11T08:10:34.387Z,1200
2022-12-11T08:11:37.716Z,1240
2022-12-11T08:12:41.184Z,1232
2022-12-11T08:13:44.356Z,1200
2022-12-11T08:14:47.191Z,1184
2022-12-11T08:15:49.912Z,1172
2022-12-11T08:16:56.908Z,1164
2022-12-11T08:18:00.709Z,1144
2022-12-11T08:19:03.482Z,1144
2022-12-11T08:20:06.254Z,1176
2022-12-11T08:21:08.753Z,1188
2022-12-11T08:22:11.254Z,1172
2022-12-11T08:23:14.418Z,1152
2022-12-11T08:24:17.476Z,1164
2022-12-11T08:25:20.828Z,1184
2022-12-11T08:26:23.133Z,1168
2022-12-11T08:27:25.266Z,1180
2022-12-11T08:28:27.802Z,1236
2022-12-11T08:29:30.294Z,1308
2022-12-11T08:30:33.489Z,1356
2022-12-11T08:31:37.139Z,1388
2022-12-11T08:32:41.282Z,1464
2022-12-11T08:33:44.399Z,1552
2022-12-11T08:34:46.622Z,1660
2022-12-11T08:35:49.404Z,1740
2022-12-11T08:36:51.545Z,1808
2022-12-11T08:37:53.792Z,1904
2022-12-11T08:38:56.850Z,1980
2022-12-11T08:39:59.552Z,2076
2022-12-11T08:41:02.961Z,2188
2022-12-11T08:42:05.531Z,2268
2022-12-11T08:43:08.662Z,2344
2022-12-11T08:44:16.223Z,2416
2022-12-11T08:45:19.282Z,2428
2022-12-11T08:46:21.752Z,2448
2022-12-11T08:47:25.260Z,2500
2022-12-11T08:48:29.177Z,2564
2022-12-11T08:49:34.685Z,2584
2022-12-11T08:50:37.552Z,2596
2022-12-11T08:51:39.967Z,2608
2022-12-11T08:52:42.552Z,2652
2022-12-11T08:53:45.609Z,2720
2022-12-11T08:54:48.436Z,2804
2022-12-11T08:55:50.945Z,2888
2022-12-11T08:56:57.691Z,2940
2022-12-11T08:58:00.815Z,2968
2022-12-11T08:59:03.786Z,3024
2022-12-11T09:00:06.361Z,3056
2022-12-11T09:01:09.201Z,3084
2022-12-11T09:02:12.453Z,3096
2022-12-11T09:03:15.748Z,3088
2022-12-11T09:04:19.097Z,3120
2022-12-11T09:05:22.520Z,3204
2022-12-11T09:06:25.556Z,3240
2022-12-11T09:07:28.985Z,3256
2022-12-11T09:08:31.751Z,3244
2022-12-11T09:09:34.662Z,3240
2022-12-11T09:10:37.436Z,3276
2022-12-11T09:11:40.591Z,3252
2022-12-11T09:12:43.740Z,3216
2022-12-11T09:13:46.439Z,3268
2022-12-11T09:14:49.795Z,3328
2022-12-11T09:15:52.941Z,3392
2022-12-11T09:16:55.978Z,3500
2022-12-11T09:17:58.863Z,3608
2022-12-11T09:19:01.936Z,3664
2022-12-11T09:20:05.047Z,3640
2022-12-11T09:21:08.428Z,3568
2022-12-11T09:22:10.925Z,3556
2022-12-11T09:23:13.205Z,3580
2022-12-11T09:24:16.128Z,3696
2022-12-11T09:25:19.128Z,3832
2022-12-11T09:26:21.627Z,3888
2022-12-11T09:27:24.965Z,3996
2022-12-11T09:28:27.773Z,4204
2022-12-11T09:29:31.476Z,4292
2022-12-11T09:30:33.953Z,4372
2022-12-11T09:31:37.339Z,4520
2022-12-11T09:32:40.837Z,4640
2022-12-11T09:33:43.403Z,4724
2022-12-11T09:34:46.021Z,4784
2022-12-11T09:35:49.222Z,4804
2022-12-11T09:36:52.939Z,4784
2022-12-11T09:37:55.792Z,4744
2022-12-11T09:38:58.211Z,4724
2022-12-11T09:40:07.235Z,4952
2022-12-11T09:41:11.008Z,5472
2022-12-11T09:42:14.059Z,5608
2022-12-11T09:43:16.934Z,5288
2022-12-11T09:44:19.457Z,5052
2022-12-11T09:45:21.961Z,5020
2022-12-11T09:46:25.130Z,4980
2022-12-11T09:47:36.847Z,4788
2022-12-11T09:48:39.066Z,4700
2022-12-11T09:49:42.423Z,4640
2022-12-11T09:50:45.296Z,4640
2022-12-11T09:51:48.811Z,4908
2022-12-11T09:52:52.456Z,5340
2022-12-11T09:53:55.892Z,5360
2022-12-11T09:54:58.875Z,5516
2022-12-11T09:56:02.370Z,5868
2022-12-11T09:57:06.007Z,6068
2022-12-11T09:58:09.254Z,6116
2022-12-11T09:59:10.920Z,5956
2022-12-11T10:00:14.262Z,5620
2022-12-11T10:01:16.773Z,5224
2022-12-11T10:02:19.241Z,4920
2022-12-11T10:03:22.844Z,5020
2022-12-11T10:04:26.515Z,5248
2022-12-11T10:05:29.388Z,5224
2022-12-11T10:06:32.095Z,5020
2022-12-11T10:07:34.950Z,5060
2022-12-11T10:08:37.844Z,5292
2022-12-11T10:09:40.263Z,4988
2022-12-11T10:10:42.843Z,4240
2022-12-11T10:11:45.969Z,3544
2022-12-11T10:12:58.518Z,3256
2022-12-11T10:14:01.621Z,3224
2022-12-11T10:15:04.246Z,3268
2022-12-11T10:16:07.716Z,3652
2022-12-11T10:17:10.673Z,4080
2022-12-11T10:18:14.734Z,4280
2022-12-11T10:19:17.520Z,4744
2022-12-11T10:20:20.923Z,5472
2022-12-11T10:21:23.344Z,6192
2022-12-11T10:22:26.466Z,6588
2022-12-11T10:23:30.290Z,6604
2022-12-11T10:25:09.262Z,6264
2022-12-11T10:26:15.585Z,5508
2022-12-11T10:27:18.372Z,5156
2022-12-11T10:28:20.538Z,5024
2022-12-11T10:29:23.248Z,5104
2022-12-11T10:30:25.544Z,5484
2022-12-11T10:31:37.046Z,5908
2022-12-11T10:32:40.352Z,6120
2022-12-11T10:33:43.394Z,6160
2022-12-11T10:34:46.447Z,6468
2022-12-11T10:35:49.623Z,7340
2022-12-11T10:36:55.969Z,8140
2022-12-11T10:38:03.060Z,8800
2022-12-11T10:39:06.669Z,9572
2022-12-11T10:40:09.771Z,10432
2022-12-11T10:41:12.269Z,11256
2022-12-11T10:42:15.405Z,11560
2022-12-11T10:43:18.184Z,11564
2022-12-11T10:44:21.165Z,11412
2022-12-11T10:45:24.027Z,11208
2022-12-11T10:46:27.206Z,11220
2022-12-11T10:47:30.484Z,11100
2022-12-11T10:48:32.711Z,10712
2022-12-11T10:49:35.235Z,11300
2022-12-11T10:50:38.587Z,11948
2022-12-11T10:51:41.005Z,12264
2022-12-11T10:52:42.952Z,12404
2022-12-11T10:53:45.757Z,12444
2022-12-11T10:54:49.218Z,12028
2022-12-11T10:55:53.005Z,10844
2022-12-11T10:56:55.550Z,9512
2022-12-11T10:57:58.912Z,8224
2022-12-11T10:59:02.259Z,7380
2022-12-11T11:00:05.317Z,6532
2022-12-11T11:01:08.384Z,5656
2022-12-11T11:02:11.992Z,5008
2022-12-11T11:03:14.944Z,4592
2022-12-11T11:04:17.755Z,4232
2022-12-11T11:05:20.603Z,3928
2022-12-11T11:06:23.671Z,3672
2022-12-11T11:07:26.550Z,3524
2022-12-11T11:08:29.847Z,3448
2022-12-11T11:09:32.925Z,3448
2022-12-11T11:10:36.048Z,3468
2022-12-11T11:11:39.471Z,3496
2022-12-11T11:12:42.353Z,3444
2022-12-11T11:13:46.056Z,3344
2022-12-11T11:14:48.912Z,3188
2022-12-11T11:15:52.280Z,2968
2022-12-11T11:16:55.756Z,2760
2022-12-11T11:17:58.880Z,2592
2022-12-11T11:19:01.982Z,2488
2022-12-11T11:20:05.114Z,2460
2022-12-11T11:21:07.701Z,2464
2022-12-11T11:22:10.511Z,2436
2022-12-11T11:23:13.561Z,2380
2022-12-11T11:24:16.364Z,2320
2022-12-11T11:25:19.230Z,2236
2022-12-11T11:26:22.642Z,2124
2022-12-11T11:28:14.722Z,1952
2022-12-11T11:29:17.787Z,1896
2022-12-11T11:30:20.477Z,1924
2022-12-11T11:31:23.612Z,1956
2022-12-11T11:32:26.575Z,2028
2022-12-11T11:33:29.509Z,2068
2022-12-11T11:34:31.989Z,2140
2022-12-11T11:35:35.338Z,2324
2022-12-11T11:36:46.759Z,2636
2022-12-11T11:37:50.106Z,2884
2022-12-11T11:38:53.456Z,3040
2022-12-11T11:39:55.891Z,3152
2022-12-11T11:41:04.342Z,3132
2022-12-11T11:42:18.062Z,2940
2022-12-11T11:43:21.162Z,2840
2022-12-11T11:44:23.870Z,2844
2022-12-11T11:45:26.847Z,2908
2022-12-11T11:46:29.821Z,3088
2022-12-11T11:47:33.933Z,3304
2022-12-11T11:48:36.997Z,3500
2022-12-11T11:49:40.811Z,3580
2022-12-11T11:50:43.788Z,3504
2022-12-11T11:51:46.916Z,3436
2022-12-11T11:52:49.608Z,3400
2022-12-11T11:53:52.775Z,3416
2022-12-11T11:54:55.897Z,3328
2022-12-11T11:55:58.434Z,3152
2022-12-11T11:57:00.596Z,3012
2022-12-11T11:58:04.005Z,3000
2022-12-11T11:59:07.428Z,3156
2022-12-11T12:00:10.115Z,3384
2022-12-11T12:01:13.089Z,3632
2022-12-11T12:02:15.858Z,3864
2022-12-11T12:03:19.258Z,3944
2022-12-11T12:04:21.758Z,3900
2022-12-11T12:05:25.743Z,3820
2022-12-11T12:06:28.872Z,3648
2022-12-11T12:07:31.924Z,3416
2022-12-11T12:08:35.186Z,3172
2022-12-11T12:09:38.233Z,3000
2022-12-11T12:10:40.959Z,2904
2022-12-11T12:11:44.083Z,2856
2022-12-11T12:12:47.253Z,2784
2022-12-11T12:13:51.027Z,2616
2022-12-11T12:14:54.410Z,2496
2022-12-11T12:15:56.937Z,2464
2022-12-11T12:17:00.782Z,2524
2022-12-11T12:18:04.114Z,2556
2022-12-11T12:19:07.209Z,2504
2022-12-11T12:20:10.189Z,2464
2022-12-11T12:21:12.728Z,2444
2022-12-11T12:22:16.154Z,2432
2022-12-11T12:23:18.933Z,2408
2022-12-11T12:24:21.911Z,2428
2022-12-11T12:25:25.184Z,2428
2022-12-11T12:26:28.268Z,2372
2022-12-11T12:29:05.430Z,2376
2022-12-11T12:30:09.096Z,2328
2022-12-11T12:31:12.325Z,2208
2022-12-11T12:32:15.814Z,2144
2022-12-11T12:33:19.173Z,2152
2022-12-11T12:34:22.355Z,2196
2022-12-11T12:35:25.417Z,2232
2022-12-11T12:36:28.573Z,2268
2022-12-11T12:37:31.620Z,2312
2022-12-11T12:38:35.045Z,2388
2022-12-11T12:39:37.551Z,2476
2022-12-11T12:40:40.557Z,2492
2022-12-11T12:41:43.409Z,2584
2022-12-11T12:42:46.184Z,2640
2022-12-11T12:43:49.918Z,2664
2022-12-11T12:44:53.630Z,2628
2022-12-11T12:45:56.802Z,2532
2022-12-11T12:46:59.509Z,2556
2022-12-11T12:48:02.484Z,2576
2022-12-11T12:49:05.815Z,2540
2022-12-11T12:50:08.578Z,2444
2022-12-11T12:51:11.976Z,2312
2022-12-11T12:52:15.045Z,2176
2022-12-11T12:53:18.027Z,2080
2022-12-11T12:54:21.007Z,2024
2022-12-11T12:55:23.413Z,1948
2022-12-11T12:56:26.456Z,1836
2022-12-11T12:57:29.213Z,1736
2022-12-11T12:58:31.622Z,1680
2022-12-11T12:59:34.933Z,1612
2022-12-11T13:00:38.235Z,1528
2022-12-11T13:01:42.255Z,1444
2022-12-11T13:02:45.680Z,1404
2022-12-11T13:03:48.263Z,1424
2022-12-11T13:04:58.145Z,1508
2022-12-11T13:06:01.166Z,1628
2022-12-11T13:07:03.932Z,1728
2022-12-11T13:08:07.336Z,1800
2022-12-11T13:09:10.583Z,1892
2022-12-11T13:10:13.350Z,1920
2022-12-11T13:11:16.322Z,1912
2022-12-11T13:12:19.797Z,1872
2022-12-11T13:13:22.844Z,1868
2022-12-11T13:14:25.545Z,1888
2022-12-11T13:15:28.694Z,1916
2022-12-11T13:16:32.533Z,1996
2022-12-11T13:17:36.720Z,2052
2022-12-11T13:18:39.754Z,2064
2022-12-11T13:19:43.032Z,2096
2022-12-11T13:20:46.755Z,2128
2022-12-11T13:21:49.472Z,2072
2022-12-11T13:22:52.240Z,2000
2022-12-11T13:23:55.954Z,1952
2022-12-11T13:24:58.648Z,2044
2022-12-11T13:26:01.497Z,2116
2022-12-11T13:27:04.585Z,2044
2022-12-11T13:28:08.087Z,2004
2022-12-11T13:29:10.790Z,2004
2022-12-11T13:30:13.846Z,2072
2022-12-11T13:31:17.273Z,2108
2022-12-11T13:32:21.074Z,2120
2022-12-11T13:33:24.425Z,2120
2022-12-11T13:34:28.050Z,2048
2022-12-11T13:35:31.177Z,1988
2022-12-11T13:36:34.052Z,1940
2022-12-11T13:37:36.828Z,1936
2022-12-11T13:38:39.666Z,1856
2022-12-11T13:39:42.751Z,1740
2022-12-11T13:40:45.952Z,1696
2022-12-11T13:41:49.006Z,1608
2022-12-11T13:42:52.052Z,1472
2022-12-11T13:43:54.657Z,1368
2022-12-11T13:44:57.733Z,1292
2022-12-11T13:46:00.834Z,1256
2022-12-11T13:47:04.284Z,1208
2022-12-11T13:48:08.173Z,1168
2022-12-11T13:49:19.170Z,1136
2022-12-11T13:50:22.875Z,1108
2022-12-11T13:51:25.380Z,1084
2022-12-11T13:52:29.001Z,1076
2022-12-11T13:53:32.064Z,1072
2022-12-11T13:54:35.681Z,1060
2022-12-11T13:55:38.260Z,1044
2022-12-11T13:56:41.400Z,1000
2022-12-11T13:57:44.454Z,940
2022-12-11T13:58:46.877Z,904
2022-12-11T13:59:49.464Z,880
2022-12-11T14:00:52.749Z,860
2022-12-11T14:01:56.530Z,832
2022-12-11T14:02:59.935Z,776
2022-12-11T14:04:03.359Z,736
2022-12-11T14:05:06.170Z,712
2022-12-11T14:06:13.312Z,700
2022-12-11T14:07:21.627Z,664
2022-12-11T14:08:23.922Z,620
2022-12-11T14:09:27.238Z,596
2022-12-11T14:10:30.355Z,584
2022-12-11T14:11:33.496Z,596
2022-12-11T14:12:36.267Z,588
2022-12-11T14:13:39.986Z,572
2022-12-11T14:14:42.477Z,540
2022-12-11T14:15:45.935Z,524
2022-12-11T14:16:49.491Z,512
2022-12-11T14:17:52.789Z,504
2022-12-11T14:18:56.118Z,488
2022-12-11T14:19:59.701Z,464
2022-12-11T14:21:03.442Z,468
2022-12-11T14:22:06.577Z,456
2022-12-11T14:23:10.073Z,440
2022-12-11T14:24:13.123Z,436
2022-12-11T14:25:15.360Z,428
2022-12-11T14:26:18.682Z,420
2022-12-11T14:27:21.727Z,408
2022-12-11T14:28:24.502Z,388
2022-12-11T14:29:26.991Z,364
2022-12-11T14:30:29.577Z,348
2022-12-11T14:31:32.970Z,340
2022-12-11T14:32:36.085Z,336
2022-12-11T14:33:39.133Z,336
2022-12-11T14:34:42.163Z,340
2022-12-11T14:35:46.320Z,344
2022-12-11T14:36:49.836Z,352
2022-12-11T14:37:53.200Z,344
2022-12-11T14:38:55.897Z,336
2022-12-11T14:39:58.874Z,316
2022-12-11T14:41:01.304Z,296
2022-12-11T14:42:04.635Z,280
2022-12-11T14:43:07.485Z,272
2022-12-11T14:44:11.330Z,256
2022-12-11T14:45:14.727Z,244
2022-12-11T14:46:17.909Z,236
2022-12-11T14:47:22.093Z,232
2022-12-11T14:48:25.415Z,216
2022-12-11T14:49:28.504Z,208
2022-12-11T14:50:31.850Z,204